Time;durP1;ratioP1;P1;durP2;ratioP2;P2;SDS_P1;SDS_P2;PMS_P1;PMS_P2;Temp;Humidity;BMP_temperature;BMP_pressure;BME280_temperature;BME280_humidity;BME280_pressure;Samples;Min_cycle;Max_cycle;Signal;HPM_P1;HPM_P2
2022/12/08 00:01:39;;;;;;;3.50;1.25;;;2.10;99.90;;;;;;5120716;27;20040;-65
2022/12/08 00:04:06;;;;;;;4.72;1.30;;;2.00;99.90;;;;;;5092198;28;20061;-66
2022/12/08 00:09:37;;;;;;;4.65;1.30;;;2.00;99.90;;;;;;5086780;28;20097;-66
2022/12/08 00:12:08;;;;;;;7.20;1.42;;;2.00;99.90;;;;;;5071395;28;20044;-65
2022/12/08 00:14:40;;;;;;;5.57;1.27;;;2.00;99.90;;;;;;5085153;28;20074;-65
2022/12/08 00:17:08;;;;;;;4.10;1.20;;;2.00;99.90;;;;;;5114735;27;20440;-65
2022/12/08 00:19:34;;;;;;;6.60;1.30;;;2.00;99.90;;;;;;5114991;27;20046;-65
2022/12/08 00:22:00;;;;;;;5.60;1.20;;;2.00;99.90;;;;;;5082689;28;20398;-66
2022/12/08 00:24:30;;;;;;;3.15;1.27;;;2.00;99.90;;;;;;5114194;27;20117;-66
2022/12/08 00:26:56;;;;;;;7.07;1.33;;;2.00;99.90;;;;;;5066891;28;20180;-65
2022/12/08 00:29:22;;;;;;;3.58;1.15;;;2.00;99.90;;;;;;5080791;28;20075;-65
2022/12/08 00:31:47;;;;;;;3.35;1.30;;;2.00;99.90;;;;;;5081869;28;20040;-65
2022/12/08 00:34:14;;;;;;;4.30;1.58;;;2.00;99.90;;;;;;5088129;28;20093;-66
2022/12/08 00:36:41;;;;;;;3.63;1.40;;;2.00;99.90;;;;;;5087242;28;20115;-64
2022/12/08 00:39:07;;;;;;;4.75;1.77;;;1.90;99.90;;;;;;5090186;28;20119;-65
2022/12/08 00:44:20;;;;;;;3.58;1.50;;;2.00;99.90;;;;;;5088046;28;20040;-65
2022/12/08 00:46:46;;;;;;;4.75;1.27;;;2.00;99.90;;;;;;5085510;28;20048;-65
2022/12/08 00:49:13;;;;;;;4.32;1.17;;;1.90;99.90;;;;;;5088820;28;20514;-65
2022/12/08 00:51:38;;;;;;;4.93;1.58;;;2.00;99.90;;;;;;5115424;27;20052;-65
2022/12/08 00:54:05;;;;;;;6.00;1.20;;;1.90;99.90;;;;;;5087915;28;20394;-65
2022/12/08 00:56:31;;;;;;;3.88;1.42;;;1.90;99.90;;;;;;5088196;28;20498;-66
2022/12/08 00:58:58;;;;;;;3.72;1.35;;;2.00;99.90;;;;;;5088249;28;20052;-66
2022/12/08 01:01:24;;;;;;;5.80;1.60;;;2.00;99.90;;;;;;5075590;28;20043;-65
2022/12/08 01:03:50;;;;;;;4.95;1.35;;;1.90;99.90;;;;;;5122024;27;20108;-65
2022/12/08 01:06:15;;;;;;;3.65;1.55;;;2.00;99.90;;;;;;5092872;28;20032;-66
2022/12/08 01:08:41;;;;;;;3.33;1.40;;;2.00;99.90;;;;;;5084548;28;20134;-65
2022/12/08 01:11:13;;;;;;;3.97;1.80;;;2.00;99.90;;;;;;5119460;27;20031;-65
2022/12/08 01:13:39;;;;;;;4.80;1.40;;;2.00;99.90;;;;;;5088044;28;20530;-65
2022/12/08 01:16:05;;;;;;;4.18;1.45;;;2.00;99.90;;;;;;5083983;28;20040;-66
2022/12/08 01:18:31;;;;;;;6.18;1.58;;;2.10;99.90;;;;;;5116797;27;20039;-65
2022/12/08 01:21:04;;;;;;;6.13;2.00;;;2.10;99.90;;;;;;5087424;28;20036;-65
2022/12/08 01:23:30;;;;;;;4.78;1.75;;;2.10;99.90;;;;;;5091542;28;20109;-65
2022/12/08 01:26:00;;;;;;;7.07;2.63;;;2.10;99.90;;;;;;5124588;27;20040;-65
2022/12/08 01:28:26;;;;;;;6.10;2.28;;;2.10;99.90;;;;;;5118602;27;20047;-65
2022/12/08 01:30:52;;;;;;;6.03;1.98;;;2.20;99.90;;;;;;5089557;28;20039;-65
2022/12/08 01:33:17;;;;;;;7.43;2.05;;;2.20;99.90;;;;;;5086345;28;20451;-66
2022/12/08 01:35:43;;;;;;;6.28;2.30;;;2.20;99.90;;;;;;5101519;27;20074;-66
2022/12/08 01:38:09;;;;;;;6.00;2.33;;;2.30;99.90;;;;;;5087338;28;20032;-66
2022/12/08 01:40:34;;;;;;;7.07;2.67;;;2.30;99.90;;;;;;5117652;27;20042;-66
2022/12/08 01:43:00;;;;;;;7.90;2.28;;;2.30;99.90;;;;;;5119324;27;20039;-65
2022/12/08 01:45:29;;;;;;;5.82;2.30;;;2.30;99.90;;;;;;5125289;27;20082;-66
2022/12/08 01:48:01;;;;;;;5.05;2.25;;;2.30;99.90;;;;;;5126131;28;20093;-65
2022/12/08 01:50:28;;;;;;;6.40;2.45;;;2.40;99.90;;;;;;5084851;28;20043;-66
2022/12/08 01:53:11;;;;;;;10.32;3.22;;;2.40;99.90;;;;;;5087116;28;20055;-66
2022/12/08 01:55:46;;;;;;;;;;;2.50;99.90;;;;;;5121844;27;20040;-66
2022/12/08 01:58:19;;;;;;;4.35;2.45;;;2.60;99.90;;;;;;5123583;28;19927;-65
2022/12/08 02:00:46;;;;;;;7.95;2.65;;;2.60;99.90;;;;;;5120347;27;20130;-65
2022/12/08 02:03:30;;;;;;;4.80;2.50;;;2.70;99.90;;;;;;5084544;28;20056;-66
2022/12/08 02:05:56;;;;;;;8.25;2.70;;;2.70;99.90;;;;;;5083192;28;20056;-66
2022/12/08 02:08:22;;;;;;;6.60;2.63;;;2.70;99.90;;;;;;5085192;28;20048;-66
2022/12/08 02:10:49;;;;;;;4.43;2.58;;;2.70;99.90;;;;;;5084320;28;20047;-66
2022/12/08 02:13:17;;;;;;;6.88;2.50;;;2.70;99.90;;;;;;5121515;27;20047;-66
2022/12/08 02:15:55;;;;;;;7.45;2.75;;;2.70;99.90;;;;;;5090736;28;20048;-65
2022/12/08 02:18:36;;;;;;;7.22;2.83;;;2.70;99.90;;;;;;5085477;28;20040;-66
2022/12/08 02:21:13;;;;;;;8.95;2.88;;;2.70;99.90;;;;;;5087335;28;20454;-65
2022/12/08 02:24:01;;;;;;;6.53;2.65;;;2.70;99.90;;;;;;5083729;28;20071;-66
2022/12/08 02:26:55;;;;;;;6.20;2.80;;;2.70;99.90;;;;;;5117180;27;20064;-66
2022/12/08 02:30:06;;;;;;;7.88;2.70;;;2.70;99.90;;;;;;5085943;28;20086;-66
2022/12/08 02:33:06;;;;;;;7.55;2.45;;;2.80;99.90;;;;;;5086406;28;20051;-65
2022/12/08 02:36:01;;;;;;;6.70;2.95;;;2.80;99.90;;;;;;5116056;27;20051;-66
2022/12/08 02:38:49;;;;;;;6.30;2.58;;;2.80;99.90;;;;;;5017079;28;20061;-65
2022/12/08 02:41:36;;;;;;;8.77;3.05;;;2.90;99.90;;;;;;5031064;28;20066;-66
2022/12/08 02:44:26;;;;;;;9.55;2.90;;;2.90;99.90;;;;;;5032812;28;20045;-65
2022/12/08 02:47:17;;;;;;;8.02;3.20;;;2.80;99.90;;;;;;5019294;28;20108;-66
2022/12/08 02:49:43;;;;;;;9.73;3.08;;;2.90;99.90;;;;;;5023141;28;20057;-65
2022/12/08 02:52:11;;;;;;;8.07;3.95;;;2.90;99.90;;;;;;5017576;28;20040;-66
2022/12/08 02:54:41;;;;;;;7.35;3.13;;;2.90;99.90;;;;;;5019050;28;20041;-65
2022/12/08 02:57:21;;;;;;;6.97;3.65;;;2.90;99.90;;;;;;5031289;28;20044;-65
2022/12/08 03:00:12;;;;;;;5.32;3.38;;;2.90;99.90;;;;;;5023356;28;20144;-66
2022/12/08 03:02:40;;;;;;;8.18;4.25;;;2.90;99.90;;;;;;5031467;28;20044;-66
2022/12/08 03:05:28;;;;;;;7.30;3.80;;;2.90;99.90;;;;;;5029728;28;20044;-66
2022/12/08 03:08:02;;;;;;;8.07;4.53;;;2.90;99.90;;;;;;5016226;28;20131;-65
2022/12/08 03:10:39;;;;;;;9.07;4.40;;;2.90;99.90;;;;;;5031343;28;20132;-65
2022/12/08 03:13:16;;;;;;;7.28;4.05;;;2.90;99.90;;;;;;5027811;28;20099;-66
2022/12/08 03:15:44;;;;;;;8.85;3.97;;;2.90;99.90;;;;;;5059610;28;20123;-66
2022/12/08 03:18:12;;;;;;;7.78;3.80;;;2.90;99.90;;;;;;5086442;28;20047;-66
2022/12/08 03:20:39;;;;;;;7.78;3.65;;;2.90;99.90;;;;;;5088687;28;20047;-65
2022/12/08 03:23:08;;;;;;;6.57;2.67;;;2.90;99.90;;;;;;5092121;28;20035;-66
2022/12/08 03:25:38;;;;;;;7.22;3.00;;;2.90;99.90;;;;;;5074594;28;20036;-66
2022/12/08 03:28:04;;;;;;;8.25;2.72;;;2.90;99.90;;;;;;5089515;28;20112;-66
2022/12/08 03:30:33;;;;;;;6.38;2.42;;;2.90;99.90;;;;;;5073951;28;20044;-66
2022/12/08 03:33:03;;;;;;;5.53;2.85;;;2.90;99.90;;;;;;5087333;28;20044;-66
2022/12/08 03:35:32;;;;;;;7.68;2.78;;;2.90;99.90;;;;;;5086822;28;20048;-66
2022/12/08 03:38:04;;;;;;;10.30;3.28;;;2.90;99.90;;;;;;5086011;28;20486;-66
2022/12/08 03:40:30;;;;;;;8.03;3.67;;;2.90;99.90;;;;;;5089006;28;20500;-65
2022/12/08 03:42:56;;;;;;;5.93;3.35;;;2.90;99.90;;;;;;5090969;28;20064;-66
2022/12/08 03:45:21;;;;;;;7.57;3.75;;;2.90;99.90;;;;;;5089282;28;20050;-66
2022/12/08 03:47:47;;;;;;;9.68;4.15;;;2.90;99.90;;;;;;5072112;28;20040;-66
2022/12/08 03:50:13;;;;;;;10.27;4.88;;;2.90;99.90;;;;;;5085242;28;20036;-65
2022/12/08 03:52:38;;;;;;;9.93;4.25;;;2.90;99.90;;;;;;5074442;28;20097;-65
2022/12/08 03:55:04;;;;;;;7.55;3.95;;;2.90;99.90;;;;;;5088565;28;20098;-66
2022/12/08 03:57:30;;;;;;;6.75;4.18;;;3.00;99.90;;;;;;5122818;27;20040;-66
2022/12/08 03:59:56;;;;;;;9.05;4.30;;;3.00;99.90;;;;;;5086488;28;20453;-66
2022/12/08 04:02:21;;;;;;;10.00;4.43;;;3.00;99.90;;;;;;5090128;28;20075;-66
2022/12/08 04:04:47;;;;;;;6.40;3.75;;;2.90;99.90;;;;;;5072280;28;20048;-66
2022/12/08 04:07:13;;;;;;;9.07;4.20;;;3.00;99.90;;;;;;5084316;28;20427;-65
2022/12/08 04:09:40;;;;;;;8.63;4.00;;;3.00;99.90;;;;;;5087981;28;20111;-65
2022/12/08 04:12:09;;;;;;;8.23;4.38;;;3.00;99.90;;;;;;5124868;27;20039;-66
2022/12/08 04:14:34;;;;;;;4.28;3.40;;;3.00;99.90;;;;;;5116726;27;20051;-65
2022/12/08 04:17:00;;;;;;;10.10;3.45;;;2.90;99.90;;;;;;5082451;28;20048;-66
2022/12/08 04:19:26;;;;;;;10.10;3.50;;;2.90;99.90;;;;;;5114397;27;20962;-65
2022/12/08 04:21:51;;;;;;;6.63;2.90;;;2.90;99.90;;;;;;5117489;27;20066;-65
2022/12/08 04:24:17;;;;;;;4.50;2.67;;;2.90;99.90;;;;;;5083029;28;20044;-65
2022/12/08 04:26:43;;;;;;;7.43;2.50;;;2.80;99.90;;;;;;5065061;28;20093;-65
2022/12/08 04:29:08;;;;;;;4.80;2.08;;;2.80;99.90;;;;;;5087181;28;20389;-66
2022/12/08 04:31:34;;;;;;;2.22;1.52;;;2.80;99.90;;;;;;5081866;28;20038;-66
2022/12/08 04:33:59;;;;;;;5.70;1.65;;;2.80;99.90;;;;;;5082270;28;20040;-66
2022/12/08 04:36:25;;;;;;;4.68;1.50;;;2.80;99.90;;;;;;5085372;28;20044;-65
2022/12/08 04:38:51;;;;;;;3.70;1.17;;;2.80;99.90;;;;;;5086584;28;20048;-66
2022/12/08 04:41:16;;;;;;;2.05;0.90;;;2.80;99.90;;;;;;5090258;28;20115;-66
2022/12/08 04:43:43;;;;;;;2.72;1.38;;;2.70;99.90;;;;;;5088943;28;20449;-66
2022/12/08 04:46:09;;;;;;;2.80;0.90;;;2.80;99.90;;;;;;5086906;28;20459;-66
2022/12/08 04:48:37;;;;;;;2.70;0.70;;;2.70;99.90;;;;;;5086277;28;20131;-65
2022/12/08 04:51:03;;;;;;;2.05;0.90;;;2.70;99.90;;;;;;5085054;28;20063;-65
2022/12/08 04:53:28;;;;;;;2.88;0.70;;;2.70;99.90;;;;;;5085406;28;20402;-66
2022/12/08 04:55:54;;;;;;;3.08;1.05;;;2.70;99.90;;;;;;5083256;28;20412;-65
2022/12/08 04:58:20;;;;;;;1.42;0.80;;;2.70;99.90;;;;;;5080198;28;20040;-66
2022/12/08 05:00:47;;;;;;;3.33;0.98;;;2.70;99.90;;;;;;5087050;28;20040;-66
2022/12/08 05:03:13;;;;;;;1.40;1.00;;;2.60;99.90;;;;;;5120933;27;20058;-66
2022/12/08 05:05:40;;;;;;;1.40;0.90;;;2.70;99.90;;;;;;5082571;28;20089;-66
2022/12/08 05:08:05;;;;;;;7.65;1.00;;;2.70;99.90;;;;;;5078852;28;20040;-66
2022/12/08 05:10:31;;;;;;;2.70;1.38;;;2.70;99.90;;;;;;5113144;27;20051;-66
2022/12/08 05:12:58;;;;;;;2.17;0.80;;;2.70;99.90;;;;;;5085709;28;20047;-66
2022/12/08 05:15:24;;;;;;;3.45;0.82;;;2.70;99.90;;;;;;5086518;28;20394;-66
2022/12/08 05:17:50;;;;;;;5.15;1.30;;;2.70;99.90;;;;;;5086577;28;20080;-66
2022/12/08 05:20:16;;;;;;;2.90;0.90;;;2.60;99.90;;;;;;5084785;28;20101;-66
2022/12/08 05:22:41;;;;;;;3.22;1.00;;;2.70;99.90;;;;;;5085620;28;20061;-66
2022/12/08 05:25:08;;;;;;;4.82;1.00;;;2.70;99.90;;;;;;5088866;28;20127;-66
2022/12/08 05:27:33;;;;;;;2.55;1.00;;;2.70;99.90;;;;;;5070823;28;20050;-66
2022/12/08 05:29:59;;;;;;;2.10;0.90;;;2.60;99.90;;;;;;5084284;28;20047;-65
2022/12/08 05:32:25;;;;;;;3.88;0.90;;;2.60;99.90;;;;;;5079370;28;20057;-66
2022/12/08 05:34:51;;;;;;;2.78;0.93;;;2.70;99.90;;;;;;5083313;28;20047;-65
2022/12/08 05:37:16;;;;;;;2.47;1.40;;;2.70;99.90;;;;;;5087987;28;20501;-66
2022/12/08 05:39:42;;;;;;;5.35;1.02;;;2.60;99.90;;;;;;5088341;28;20040;-66
2022/12/08 05:42:08;;;;;;;3.15;0.80;;;2.60;99.90;;;;;;5084735;28;20119;-65
2022/12/08 05:44:33;;;;;;;2.88;0.95;;;2.70;99.90;;;;;;5081190;28;20044;-66
2022/12/08 05:46:59;;;;;;;2.78;0.90;;;2.60;99.90;;;;;;5086817;28;20051;-66
2022/12/08 05:49:25;;;;;;;1.92;0.80;;;2.60;99.90;;;;;;5083481;28;20036;-66
2022/12/08 05:51:51;;;;;;;1.20;0.90;;;2.70;99.90;;;;;;5085160;28;20044;-66
2022/12/08 05:54:16;;;;;;;2.63;0.90;;;2.70;99.90;;;;;;5118409;27;20460;-66
2022/12/08 05:56:42;;;;;;;2.60;0.98;;;2.80;99.90;;;;;;5085654;28;20039;-65
2022/12/08 05:59:08;;;;;;;1.45;0.80;;;2.80;99.90;;;;;;5114104;27;20059;-66
2022/12/08 06:01:34;;;;;;;3.78;0.85;;;2.80;99.90;;;;;;5086639;28;20052;-65
2022/12/08 06:04:01;;;;;;;3.08;0.90;;;2.90;99.90;;;;;;5086838;28;20071;-66
2022/12/08 06:06:28;;;;;;;1.77;0.50;;;2.90;99.90;;;;;;5086880;28;20114;-65
2022/12/08 06:08:54;;;;;;;2.85;0.77;;;2.90;99.90;;;;;;5087790;28;20044;-66
2022/12/08 06:11:23;;;;;;;3.10;1.00;;;3.00;99.90;;;;;;5087649;28;20044;-66
2022/12/08 06:13:49;;;;;;;2.42;0.60;;;3.00;99.90;;;;;;5082755;28;20056;-66
2022/12/08 06:16:15;;;;;;;1.88;0.70;;;3.00;99.90;;;;;;5083376;28;20047;-66
2022/12/08 06:18:41;;;;;;;3.42;0.85;;;3.00;99.90;;;;;;5115669;27;20588;-66
2022/12/08 06:21:09;;;;;;;1.25;0.60;;;2.90;99.90;;;;;;5085435;28;20052;-67
2022/12/08 06:23:36;;;;;;;2.38;0.90;;;2.90;99.90;;;;;;5111184;28;20036;-67
2022/12/08 06:26:03;;;;;;;1.25;0.65;;;2.90;99.90;;;;;;5083562;28;20500;-66
2022/12/08 06:28:30;;;;;;;2.25;0.50;;;2.90;99.90;;;;;;5077860;28;20028;-67
2022/12/08 06:30:56;;;;;;;2.30;0.57;;;2.90;99.90;;;;;;5077383;28;20044;-66
2022/12/08 06:33:21;;;;;;;4.20;0.90;;;2.90;99.90;;;;;;5079375;28;20113;-65
2022/12/08 06:35:47;;;;;;;3.88;1.10;;;2.90;99.90;;;;;;5080046;28;20050;-66
2022/12/08 06:38:13;;;;;;;4.53;1.90;;;2.90;99.90;;;;;;5078576;28;20481;-66
2022/12/08 06:40:38;;;;;;;2.50;1.00;;;2.90;99.90;;;;;;5076933;28;20119;-67
2022/12/08 06:43:04;;;;;;;2.72;1.13;;;2.80;99.90;;;;;;5079453;28;20070;-66
2022/12/08 06:45:29;;;;;;;4.93;1.77;;;2.80;99.90;;;;;;5093204;28;20248;-66
2022/12/08 06:47:55;;;;;;;3.10;1.88;;;2.70;99.90;;;;;;5082640;28;20056;-66
2022/12/08 06:50:20;;;;;;;2.22;1.10;;;2.70;99.90;;;;;;5087760;28;20047;-65
2022/12/08 06:52:46;;;;;;;4.82;1.50;;;2.70;99.90;;;;;;5073329;28;20048;-66
2022/12/08 06:55:12;;;;;;;4.60;2.22;;;2.80;99.90;;;;;;5087743;28;20040;-66
2022/12/08 06:57:37;;;;;;;4.43;1.98;;;2.80;99.90;;;;;;5087828;28;20055;-66
2022/12/08 07:00:04;;;;;;;4.00;1.38;;;2.80;99.90;;;;;;5097422;28;20047;-66
2022/12/08 07:02:30;;;;;;;4.03;1.00;;;2.80;99.90;;;;;;5127430;27;20043;-66
2022/12/08 07:04:56;;;;;;;4.93;1.20;;;2.80;99.90;;;;;;5093855;28;20405;-66
2022/12/08 07:07:21;;;;;;;2.35;0.88;;;2.80;99.90;;;;;;5093730;28;20086;-66
2022/12/08 07:09:47;;;;;;;3.05;1.00;;;2.70;99.90;;;;;;5094251;28;20024;-65
2022/12/08 07:12:13;;;;;;;4.40;1.55;;;2.70;99.90;;;;;;5092969;28;20101;-66
2022/12/08 07:14:38;;;;;;;3.45;0.90;;;2.70;99.90;;;;;;5093928;28;20106;-67
2022/12/08 07:17:04;;;;;;;3.15;1.00;;;2.70;99.90;;;;;;5093691;28;20039;-66
2022/12/08 07:19:29;;;;;;;4.13;0.82;;;2.70;99.90;;;;;;5126646;27;20028;-66
2022/12/08 07:21:55;;;;;;;3.00;0.70;;;2.70;99.90;;;;;;5093315;28;20043;-65
2022/12/08 07:24:21;;;;;;;3.25;0.80;;;2.70;99.90;;;;;;5093036;28;20055;-66
2022/12/08 07:26:46;;;;;;;2.08;0.80;;;2.60;99.90;;;;;;5093339;28;20496;-67
2022/12/08 07:29:12;;;;;;;1.33;0.60;;;2.70;99.90;;;;;;5093661;28;20058;-66
2022/12/08 07:31:38;;;;;;;3.22;0.70;;;2.70;99.90;;;;;;5094215;28;20436;-66
2022/12/08 07:34:03;;;;;;;1.98;1.02;;;2.70;99.90;;;;;;5094132;28;20074;-66
2022/12/08 07:36:29;;;;;;;3.42;0.60;;;2.70;99.90;;;;;;5094558;28;20046;-65
2022/12/08 07:38:55;;;;;;;2.22;0.60;;;2.70;99.90;;;;;;5077879;28;20066;-67
2022/12/08 07:41:23;;;;;;;2.33;1.15;;;2.70;99.90;;;;;;5128919;27;20457;-66
2022/12/08 07:43:49;;;;;;;1.92;0.70;;;2.70;99.90;;;;;;5109248;28;20058;-65
2022/12/08 07:46:18;;;;;;;3.17;0.80;;;2.70;99.90;;;;;;5126727;27;20079;-65
2022/12/08 07:48:45;;;;;;;2.90;0.60;;;2.70;99.90;;;;;;5093004;28;20067;-65
2022/12/08 07:51:12;;;;;;;1.60;0.50;;;2.60;99.90;;;;;;5092825;28;20047;-66
2022/12/08 07:53:39;;;;;;;1.15;0.50;;;2.60;99.90;;;;;;5093067;28;20118;-65
2022/12/08 07:56:06;;;;;;;2.67;0.57;;;2.60;99.90;;;;;;5093690;28;20122;-66
2022/12/08 07:58:32;;;;;;;2.38;0.55;;;2.60;99.90;;;;;;5092770;28;20035;-66
2022/12/08 08:00:57;;;;;;;5.30;0.75;;;2.50;99.90;;;;;;5092420;28;20096;-65
2022/12/08 08:03:23;;;;;;;0.68;0.50;;;2.50;99.90;;;;;;5073334;28;20084;-65
2022/12/08 08:05:49;;;;;;;3.03;0.60;;;2.60;99.90;;;;;;5091117;28;20530;-66
2022/12/08 08:08:15;;;;;;;2.10;0.50;;;2.50;99.90;;;;;;5093377;28;20039;-66
2022/12/08 08:10:41;;;;;;;1.15;0.50;;;2.50;99.90;;;;;;5075546;28;20078;-66
2022/12/08 08:13:07;;;;;;;3.67;0.50;;;2.60;99.90;;;;;;5092619;28;20043;-66
2022/12/08 08:15:33;;;;;;;2.47;1.10;;;2.60;99.90;;;;;;5075534;28;20044;-67
2022/12/08 08:17:59;;;;;;;1.65;0.65;;;2.60;99.90;;;;;;5075684;28;20039;-66
2022/12/08 08:20:25;;;;;;;1.63;0.68;;;2.60;99.90;;;;;;5093141;28;20063;-65
2022/12/08 08:22:51;;;;;;;4.60;0.80;;;2.60;99.90;;;;;;5126760;27;20141;-66
2022/12/08 08:25:19;;;;;;;5.03;0.70;;;2.60;99.90;;;;;;5128047;27;20378;-66
2022/12/08 08:27:45;;;;;;;3.05;1.10;;;2.60;99.90;;;;;;5127448;27;20044;-67
2022/12/08 08:30:12;;;;;;;4.32;0.93;;;2.60;99.90;;;;;;5126731;27;20036;-65
2022/12/08 08:32:38;;;;;;;2.60;0.50;;;2.60;99.90;;;;;;5092240;28;20367;-66
2022/12/08 08:35:04;;;;;;;2.20;0.93;;;2.60;99.90;;;;;;5093011;28;20092;-66
2022/12/08 08:37:30;;;;;;;2.00;0.57;;;2.70;99.90;;;;;;5093347;28;20028;-66
2022/12/08 08:39:57;;;;;;;2.30;0.55;;;2.60;99.90;;;;;;5075426;28;20043;-67
2022/12/08 08:42:22;;;;;;;1.05;0.60;;;2.60;99.90;;;;;;5092143;28;20088;-67
2022/12/08 08:44:48;;;;;;;1.08;0.57;;;2.60;99.90;;;;;;5091417;28;20055;-67
2022/12/08 08:47:14;;;;;;;2.78;0.65;;;2.60;99.90;;;;;;5092096;28;20032;-67
2022/12/08 08:49:39;;;;;;;5.95;1.02;;;2.70;99.90;;;;;;5092492;28;20044;-66
2022/12/08 08:52:06;;;;;;;3.80;0.80;;;2.70;99.90;;;;;;5092135;28;20039;-67
2022/12/08 08:54:33;;;;;;;2.60;0.70;;;2.70;99.90;;;;;;5091734;28;20071;-66
2022/12/08 08:57:00;;;;;;;6.88;1.77;;;2.70;99.90;;;;;;5107869;28;20439;-66
2022/12/08 08:59:26;;;;;;;2.50;1.08;;;2.70;99.90;;;;;;5091590;28;20158;-66
2022/12/08 09:01:53;;;;;;;2.67;1.00;;;2.70;99.90;;;;;;5091730;28;20092;-67
2022/12/08 09:04:20;;;;;;;5.22;1.05;;;2.70;99.90;;;;;;5126126;27;20039;-66
2022/12/08 09:06:47;;;;;;;4.25;1.00;;;2.70;99.90;;;;;;5092317;28;20043;-66
2022/12/08 09:09:13;;;;;;;2.58;2.00;;;2.80;99.90;;;;;;5091975;28;20039;-67
2022/12/08 09:11:39;;;;;;;3.92;1.80;;;2.80;99.90;;;;;;5091887;28;20089;-67
2022/12/08 09:14:05;;;;;;;2.88;1.90;;;2.80;99.90;;;;;;5125561;27;20043;-67
2022/12/08 09:16:31;;;;;;;2.90;1.88;;;2.80;99.90;;;;;;5109738;28;20421;-67
2022/12/08 09:18:56;;;;;;;2.60;1.95;;;2.80;99.90;;;;;;5090763;28;20044;-66
2022/12/08 09:21:24;;;;;;;4.35;2.50;;;2.90;99.90;;;;;;5090654;28;20047;-66
2022/12/08 09:23:58;;;;;;;3.35;2.30;;;2.90;99.90;;;;;;5125092;27;20055;-66
2022/12/08 09:26:25;;;;;;;6.00;2.50;;;2.90;99.90;;;;;;5125750;27;20027;-66
2022/12/08 09:28:52;;;;;;;5.15;2.78;;;3.00;99.90;;;;;;5125318;27;20050;-66
2022/12/08 09:31:19;;;;;;;5.15;2.50;;;3.00;99.90;;;;;;5074187;28;20039;-66
2022/12/08 09:33:46;;;;;;;7.28;3.63;;;3.00;99.90;;;;;;5090933;28;20060;-66
2022/12/08 09:36:12;;;;;;;4.47;2.40;;;3.00;99.90;;;;;;5091231;28;20122;-66
2022/12/08 09:38:38;;;;;;;5.43;2.63;;;3.10;99.90;;;;;;5091491;28;20123;-67
2022/12/08 09:41:23;;;;;;;4.25;2.35;;;3.10;99.90;;;;;;5125508;27;20031;-67
2022/12/08 09:43:57;;;;;;;6.38;2.42;;;3.10;99.90;;;;;;5073724;28;20047;-66
2022/12/08 09:46:27;;;;;;;3.92;2.50;;;3.20;99.90;;;;;;5091413;28;20432;-67
2022/12/08 09:48:58;;;;;;;6.03;2.80;;;3.20;99.90;;;;;;5126052;27;20058;-66
2022/12/08 09:51:34;;;;;;;4.50;2.80;;;3.20;99.90;;;;;;5087309;28;20047;-67
2022/12/08 09:54:07;;;;;;;7.55;2.67;;;3.10;99.90;;;;;;5091811;28;20539;-67
2022/12/08 09:56:35;;;;;;;5.25;2.08;;;3.20;99.90;;;;;;5125749;28;20059;-67
2022/12/08 09:59:07;;;;;;;5.35;2.45;;;3.20;99.90;;;;;;5074337;28;20052;-66
2022/12/08 10:01:38;;;;;;;4.88;2.60;;;3.20;99.90;;;;;;5089388;28;20047;-66
2022/12/08 10:04:20;;;;;;;5.68;2.30;;;3.20;99.90;;;;;;5123985;28;20054;-66
2022/12/08 10:06:58;;;;;;;5.03;1.88;;;3.30;99.90;;;;;;5090518;28;20047;-67
2022/12/08 10:09:37;;;;;;;4.13;1.85;;;3.30;99.90;;;;;;5124463;28;20050;-67
2022/12/08 10:12:18;;;;;;;4.38;1.63;;;3.30;99.90;;;;;;5090862;28;20055;-67
2022/12/08 10:15:02;;;;;;;4.15;1.80;;;3.40;99.90;;;;;;5090133;28;20466;-66
2022/12/08 10:17:34;;;;;;;5.18;1.83;;;3.30;99.90;;;;;;5073152;28;20034;-67
2022/12/08 10:20:14;;;;;;;8.03;1.90;;;3.30;99.90;;;;;;5090081;28;20054;-67
2022/12/08 10:22:40;;;;;;;4.05;1.65;;;3.20;99.90;;;;;;5109137;28;20376;-66
2022/12/08 10:25:19;;;;;;;2.78;1.70;;;3.20;99.90;;;;;;5077465;28;20130;-67
2022/12/08 10:27:47;;;;;;;2.80;2.05;;;3.30;99.90;;;;;;5094532;28;20158;-67
2022/12/08 10:30:15;;;;;;;3.08;1.67;;;3.30;99.90;;;;;;5095110;28;20122;-66
2022/12/08 10:32:44;;;;;;;2.22;1.30;;;3.30;99.90;;;;;;5095670;28;20043;-66
2022/12/08 10:35:13;;;;;;;7.05;2.75;;;3.40;99.90;;;;;;5129498;27;20089;-66
2022/12/08 10:37:39;;;;;;;4.50;1.90;;;3.30;99.90;;;;;;5112796;28;20040;-67
2022/12/08 10:40:07;;;;;;;3.60;1.95;;;3.30;99.90;;;;;;5130098;27;20390;-67
2022/12/08 10:42:40;;;;;;;2.72;1.23;;;3.30;99.90;;;;;;5095763;28;20067;-66
2022/12/08 10:45:09;;;;;;;2.10;1.25;;;3.30;99.90;;;;;;5095468;28;20070;-66
2022/12/08 10:47:40;;;;;;;6.30;1.45;;;3.30;99.90;;;;;;5095401;28;20035;-67
2022/12/08 10:50:31;;;;;;;4.28;1.15;;;3.20;99.90;;;;;;5112600;28;20486;-67
2022/12/08 10:53:11;;;;;;;2.80;1.20;;;3.30;99.90;;;;;;5094567;28;20036;-67
2022/12/08 10:55:49;;;;;;;3.33;0.98;;;3.30;99.90;;;;;;5127636;27;20058;-66
2022/12/08 10:58:40;;;;;;;3.33;1.58;;;3.30;99.90;;;;;;5093578;28;20043;-66
2022/12/08 11:01:28;;;;;;;2.83;1.65;;;3.30;99.90;;;;;;5092949;28;20517;-67
2022/12/08 11:04:00;;;;;;;3.78;1.20;;;3.30;99.90;;;;;;5092413;28;20118;-67
2022/12/08 11:06:31;;;;;;;4.03;1.60;;;3.30;99.90;;;;;;5075588;28;20108;-67
2022/12/08 11:09:04;;;;;;;3.70;1.70;;;3.30;99.90;;;;;;5095172;28;20488;-66
2022/12/08 11:11:50;;;;;;;4.05;1.52;;;3.30;99.90;;;;;;5094622;28;20144;-67
2022/12/08 11:14:30;;;;;;;2.40;1.70;;;3.40;99.90;;;;;;5094578;28;20040;-66
2022/12/08 11:17:06;;;;;;;3.47;1.38;;;3.40;99.90;;;;;;5098861;27;20058;-66
2022/12/08 11:19:54;;;;;;;3.15;1.70;;;3.50;99.90;;;;;;5094229;27;20047;-66
2022/12/08 11:22:29;;;;;;;3.33;1.40;;;3.50;99.90;;;;;;5128463;27;20043;-67
2022/12/08 11:24:58;;;;;;;5.00;1.98;;;3.60;99.90;;;;;;5079418;27;20047;-66
2022/12/08 11:27:24;;;;;;;5.35;2.20;;;3.60;99.90;;;;;;5098518;27;20110;-67
2022/12/08 11:29:50;;;;;;;4.03;2.03;;;3.70;99.90;;;;;;5077801;28;20057;-67
2022/12/08 11:32:16;;;;;;;4.00;2.10;;;3.70;99.90;;;;;;5097061;27;20546;-68
2022/12/08 11:34:56;;;;;;;7.15;2.20;;;3.80;99.90;;;;;;5133937;27;20076;-66
2022/12/08 11:37:33;;;;;;;4.90;2.03;;;3.90;99.90;;;;;;5097864;28;20420;-67
2022/12/08 11:40:04;;;;;;;6.60;1.85;;;3.90;99.90;;;;;;5090497;27;20044;-67
2022/12/08 11:42:36;;;;;;;4.80;2.25;;;4.00;99.90;;;;;;5132307;27;20044;-67
2022/12/08 11:45:10;;;;;;;3.17;2.13;;;4.00;99.90;;;;;;5130500;27;20031;-67
2022/12/08 11:47:44;;;;;;;4.70;2.42;;;4.00;99.90;;;;;;5097327;27;20874;-66
2022/12/08 11:50:21;;;;;;;6.50;2.83;;;4.00;99.90;;;;;;5112029;27;20138;-67
2022/12/08 11:52:49;;;;;;;4.38;2.60;;;4.00;99.90;;;;;;5092857;28;20048;-67
2022/12/08 11:55:24;;;;;;;4.88;2.28;;;4.00;99.90;;;;;;5127606;27;20043;-66
2022/12/08 11:57:51;;;;;;;4.20;2.20;;;4.00;99.90;;;;;;5093441;28;20043;-66
2022/12/08 12:00:17;;;;;;;5.25;2.10;;;4.10;99.90;;;;;;5091939;28;20062;-67
2022/12/08 12:02:49;;;;;;;5.97;2.35;;;4.10;99.90;;;;;;5094087;28;20034;-66
2022/12/08 12:06:06;;;;;;;4.43;2.15;;;4.20;99.90;;;;;;5092154;28;20071;-65
2022/12/08 12:08:58;;;;;;;3.17;1.92;;;4.20;99.90;;;;;;5032157;28;20072;-67
2022/12/08 12:14:45;;;;;;;2.85;1.95;;;4.60;99.90;;;;;;5032470;28;20053;-67
2022/12/08 12:17:42;;;;;;;3.05;2.05;;;4.80;99.90;;;;;;5031934;28;20053;-67
2022/12/08 12:20:37;;;;;;;4.13;1.90;;;4.90;99.90;;;;;;4973385;28;20042;-66
2022/12/08 12:23:21;;;;;;;3.95;1.98;;;5.20;99.90;;;;;;4915183;29;20503;-67
2022/12/08 12:25:54;;;;;;;1.95;1.50;;;5.70;99.90;;;;;;4915974;29;20055;-67
2022/12/08 12:28:24;;;;;;;1.90;1.40;;;5.90;99.90;;;;;;4915816;29;20407;-67
2022/12/08 12:31:10;;;;;;;2.97;1.30;;;5.90;99.90;;;;;;4916824;29;20095;-66
2022/12/08 12:33:36;;;;;;;3.38;1.42;;;6.80;99.90;;;;;;4915447;29;20154;-66
2022/12/08 12:36:05;;;;;;;3.88;1.70;;;8.00;99.90;;;;;;4915988;29;20187;-66
2022/12/08 12:41:30;;;;;;;2.40;1.30;;;8.50;99.90;;;;;;4915545;29;20044;-67
2022/12/08 12:44:21;;;;;;;2.92;1.40;;;8.30;99.90;;;;;;4917263;29;20431;-66
2022/12/08 12:46:49;;;;;;;1.70;0.98;;;8.10;99.90;;;;;;4934783;29;20200;-67
2022/12/08 12:49:42;;;;;;;1.67;0.93;;;7.60;99.90;;;;;;4934211;29;20039;-66
2022/12/08 12:52:19;;;;;;;3.53;1.10;;;7.10;99.90;;;;;;4935388;29;20527;-67
2022/12/08 12:54:48;;;;;;;4.07;1.33;;;6.80;99.90;;;;;;4933090;29;20062;-67
2022/12/08 12:57:21;;;;;;;4.13;1.55;;;6.50;99.90;;;;;;4949399;28;20058;-66
2022/12/08 12:59:52;;;;;;;6.43;2.05;;;6.20;99.90;;;;;;5025832;28;20047;-65
2022/12/08 13:02:38;;;;;;;4.55;1.80;;;6.00;99.90;;;;;;5091670;28;20657;-65
2022/12/08 13:05:12;;;;;;;3.05;1.90;;;5.80;99.90;;;;;;5091087;28;20071;-66
2022/12/08 13:07:48;;;;;;;3.72;1.70;;;5.70;99.90;;;;;;5124324;27;20039;-66
2022/12/08 13:10:24;;;;;;;2.58;1.60;;;5.60;99.90;;;;;;5123144;27;20521;-66
2022/12/08 13:13:15;;;;;;;4.30;2.00;;;5.70;99.90;;;;;;5090242;28;20046;-66
2022/12/08 13:15:52;;;;;;;4.45;1.90;;;5.80;99.90;;;;;;5086986;28;20051;-67
2022/12/08 13:18:48;;;;;;;3.35;1.50;;;5.80;99.90;;;;;;5091150;28;20027;-66
2022/12/08 13:21:23;;;;;;;4.40;1.20;;;5.70;99.90;;;;;;5033500;28;20052;-67
2022/12/08 13:24:16;;;;;;;5.28;1.95;;;5.60;99.90;;;;;;5039507;28;20377;-67
2022/12/08 13:27:00;;;;;;;;;;;5.40;99.90;;;;;;5036963;28;20408;-68